createdAt,value
2022-10-11T00:00:06.290Z,57.70
2022-10-11T00:02:33.096Z,74.00
2022-10-11T00:07:27.381Z,75.30
2022-10-11T00:12:21.412Z,66.30
2022-10-11T00:19:42.795Z,64.80
2022-10-11T00:29:31.364Z,75.30
2022-10-11T00:31:58.359Z,62.50
2022-10-11T00:39:19.758Z,75.40
2022-10-11T00:44:24.297Z,75.80
2022-10-11T00:47:04.977Z,75.00
2022-10-11T00:49:51.109Z,57.90
2022-10-11T00:52:33.825Z,57.70
2022-10-11T00:55:09.140Z,75.60
2022-10-11T00:57:40.747Z,76.00
2022-10-11T01:00:10.955Z,75.90
2022-10-11T01:05:27.990Z,76.00
2022-10-11T01:07:54.828Z,76.30
2022-10-11T01:10:22.400Z,59.20
2022-10-11T01:13:29.489Z,59.70
2022-10-11T01:16:08.465Z,75.90
2022-10-11T01:18:46.695Z,59.70
2022-10-11T01:21:28.595Z,57.10
2022-10-11T01:24:41.553Z,57.50
2022-10-11T01:27:36.577Z,76.80
2022-10-11T01:30:28.907Z,76.40
2022-10-11T01:33:05.492Z,59.80
2022-10-11T01:35:53.620Z,57.70
2022-10-11T01:38:37.844Z,75.50
2022-10-11T01:41:10.528Z,69.20
2022-10-11T01:43:38.789Z,59.00
2022-10-11T01:46:07.813Z,59.60
2022-10-11T01:48:50.549Z,75.30
2022-10-11T01:51:21.165Z,60.20
2022-10-11T01:54:12.352Z,57.80
2022-10-11T01:56:47.792Z,75.40
2022-10-11T01:59:28.524Z,76.70
2022-10-11T02:02:02.675Z,60.10
2022-10-11T02:04:47.116Z,57.60
2022-10-11T02:07:31.046Z,69.60
2022-10-11T02:10:23.141Z,60.30
2022-10-11T02:12:58.012Z,60.20
2022-10-11T02:15:28.081Z,60.30
2022-10-11T02:17:59.761Z,76.00
2022-10-11T02:20:31.048Z,76.20
2022-10-11T02:23:05.477Z,76.60
2022-10-11T02:25:35.853Z,60.00
2022-10-11T02:28:07.488Z,60.10
2022-10-11T02:30:35.481Z,77.00
2022-10-11T02:33:05.416Z,60.40
2022-10-11T02:35:39.082Z,60.30
2022-10-11T02:38:16.344Z,58.20
2022-10-11T02:40:47.730Z,60.40
2022-10-11T02:43:25.615Z,77.20
2022-10-11T02:45:59.910Z,76.40
2022-10-11T02:48:29.481Z,59.90
2022-10-11T02:50:57.860Z,77.30
2022-10-11T02:53:26.702Z,77.30
2022-10-11T02:55:55.723Z,77.30
2022-10-11T02:58:23.782Z,76.40
2022-10-11T03:00:51.093Z,75.80
2022-10-11T03:03:17.884Z,77.50
2022-10-11T03:05:44.754Z,70.80
2022-10-11T03:08:13.768Z,77.30
2022-10-11T03:10:41.377Z,77.00
2022-10-11T03:13:08.336Z,77.10
2022-10-11T03:15:35.343Z,77.70
2022-10-11T03:32:47.072Z,69.60
2022-10-11T03:35:13.946Z,78.10
2022-10-11T03:45:07.963Z,60.10
2022-10-11T03:47:36.571Z,61.60
2022-10-11T03:50:05.120Z,61.40
2022-10-11T03:52:32.115Z,76.90
2022-10-11T03:59:53.400Z,77.00
2022-10-11T04:07:15.755Z,73.40
2022-10-11T04:12:09.712Z,67.30
2022-10-11T04:19:30.914Z,77.10
2022-10-11T04:21:57.805Z,76.90
2022-10-11T04:24:24.595Z,76.80
2022-10-11T04:26:51.501Z,66.80
2022-10-11T04:29:18.260Z,72.00
2022-10-11T04:34:12.341Z,77.40
2022-10-11T04:39:07.618Z,77.00
2022-10-11T04:41:35.018Z,78.10
2022-10-11T04:44:03.253Z,77.20
2022-10-11T04:51:25.287Z,78.50
2022-10-11T04:58:49.530Z,78.80
2022-10-11T05:03:43.739Z,78.40
2022-10-11T05:11:08.658Z,74.60
2022-10-11T05:13:36.107Z,79.10
2022-10-11T05:16:09.580Z,62.40
2022-10-11T05:21:06.496Z,66.10
2022-10-11T05:23:35.129Z,76.10
2022-10-11T05:28:30.132Z,79.30
2022-10-11T05:33:24.336Z,63.00
2022-10-11T05:38:19.048Z,75.50
2022-10-11T05:45:41.715Z,76.60
2022-10-11T05:48:09.303Z,60.90
2022-10-11T05:50:37.032Z,79.40
2022-10-11T05:53:04.509Z,79.60
2022-10-11T05:55:36.407Z,63.30
2022-10-11T06:00:31.557Z,63.00
2022-10-11T06:02:58.341Z,78.60
2022-10-11T06:12:47.303Z,79.30
2022-10-11T06:15:14.489Z,79.10
2022-10-11T06:25:03.498Z,80.00
2022-10-11T06:27:30.304Z,74.30
2022-10-11T06:34:51.501Z,79.80
2022-10-11T06:37:18.965Z,62.70
2022-10-11T06:44:40.610Z,79.90
2022-10-11T06:47:08.742Z,63.20
2022-10-11T06:49:35.815Z,78.10
2022-10-11T07:04:19.562Z,78.90
2022-10-11T07:06:46.323Z,79.40
2022-10-11T07:11:40.289Z,78.90
2022-10-11T07:14:07.985Z,62.10
2022-10-11T07:16:37.927Z,60.60
2022-10-11T07:19:06.526Z,77.80
2022-10-11T07:21:34.735Z,62.50
2022-10-11T07:24:02.200Z,78.20
2022-10-11T07:29:04.961Z,79.00
2022-10-11T07:31:31.943Z,78.00
2022-10-11T07:43:49.853Z,75.10
2022-10-11T07:46:18.291Z,78.50
2022-10-11T07:48:45.092Z,69.40
2022-10-11T07:51:20.453Z,60.10
2022-10-11T07:53:49.542Z,62.00
2022-10-11T07:56:22.372Z,61.90
2022-10-11T07:58:54.460Z,59.70
2022-10-11T08:03:49.684Z,64.50
2022-10-11T08:06:19.214Z,76.60
2022-10-11T08:11:24.899Z,59.50
2022-10-11T08:13:52.022Z,77.20
2022-10-11T08:16:19.128Z,77.60
2022-10-11T08:18:46.017Z,77.60
2022-10-11T08:21:15.841Z,61.10
2022-10-11T08:23:43.200Z,76.70
2022-10-11T08:26:10.555Z,76.90
2022-10-11T08:31:05.439Z,75.60
2022-10-11T08:38:26.905Z,71.60
2022-10-11T08:40:56.773Z,57.60
2022-10-11T08:43:35.505Z,56.30
2022-10-11T08:46:05.884Z,58.00
2022-10-11T08:48:36.921Z,73.90
2022-10-11T08:51:15.116Z,63.00
2022-10-11T08:53:52.029Z,71.90
2022-10-11T08:56:21.660Z,72.90
2022-10-11T08:58:54.420Z,71.80
2022-10-11T09:01:24.960Z,71.40
2022-10-11T09:03:52.296Z,70.40
2022-10-11T09:06:32.454Z,69.90
2022-10-11T09:09:14.121Z,69.60
2022-10-11T09:12:02.399Z,69.60
2022-10-11T09:14:42.506Z,68.60
2022-10-11T09:17:18.735Z,52.70
2022-10-11T09:20:19.778Z,67.80
2022-10-11T09:23:16.648Z,51.90
2022-10-11T09:25:55.190Z,65.80
2022-10-11T09:28:46.764Z,65.60
2022-10-11T09:31:13.778Z,50.10
2022-10-11T09:33:50.424Z,50.20
2022-10-11T09:36:29.263Z,63.70
2022-10-11T09:39:22.400Z,62.90
2022-10-11T09:42:00.548Z,48.30
2022-10-11T09:44:32.614Z,46.70
2022-10-11T09:46:59.467Z,46.50
2022-10-11T09:49:42.656Z,59.40
2022-10-11T09:52:17.939Z,47.20
2022-10-11T09:54:47.740Z,58.20
2022-10-11T09:57:30.055Z,54.40
2022-10-11T10:00:12.341Z,51.70
2022-10-11T10:02:44.267Z,39.20
2022-10-11T10:05:11.007Z,39.90
2022-10-11T10:07:40.973Z,37.60
2022-10-11T10:10:32.169Z,38.70
2022-10-11T10:13:01.700Z,36.60
2022-10-11T10:15:35.249Z,39.20
2022-10-11T10:18:03.893Z,36.50
2022-10-11T10:20:34.042Z,34.20
2022-10-11T10:23:31.913Z,34.20
2022-10-11T10:26:21.614Z,34.20
2022-10-11T10:28:56.602Z,30.30
2022-10-11T10:31:44.410Z,32.50
2022-10-11T10:34:36.540Z,42.60
2022-10-11T10:37:29.186Z,28.30
2022-10-11T10:40:09.645Z,27.70
2022-10-11T10:42:37.387Z,30.30
2022-10-11T10:45:11.166Z,28.90
2022-10-11T10:47:39.004Z,28.10
2022-10-11T10:50:08.214Z,28.50
2022-10-11T10:53:01.122Z,26.20
2022-10-11T10:55:46.072Z,25.20
2022-10-11T10:58:51.390Z,27.20
2022-10-11T11:01:30.651Z,24.20
2022-10-11T11:04:28.876Z,24.90
2022-10-11T11:07:13.288Z,24.20
2022-10-11T11:10:00.605Z,25.00
2022-10-11T11:12:47.088Z,22.30
2022-10-11T11:15:43.399Z,22.90
2022-10-11T11:18:38.246Z,24.00
2022-10-11T11:21:09.656Z,20.40
2022-10-11T11:24:11.035Z,21.90
2022-10-11T11:26:49.408Z,33.10
2022-10-11T11:29:34.645Z,31.20
2022-10-11T11:32:12.100Z,17.50
2022-10-11T11:34:46.567Z,16.80
2022-10-11T11:37:35.378Z,16.80
2022-10-11T11:40:17.780Z,14.40
2022-10-11T11:42:55.360Z,15.60
2022-10-11T11:45:24.195Z,15.00
2022-10-11T11:47:56.925Z,14.40
2022-10-11T11:50:27.322Z,14.80
2022-10-11T11:53:12.729Z,12.90
2022-10-11T11:56:09.572Z,13.50
2022-10-11T11:58:49.847Z,11.60
2022-10-11T12:01:31.304Z,20.20
2022-10-11T12:04:17.622Z,9.80
2022-10-11T12:07:11.230Z,11.40
2022-10-11T12:09:33.920Z,10.20
2022-10-11T12:12:04.710Z,10.20
2022-10-11T12:14:34.297Z,11.00
2022-10-11T12:17:15.679Z,11.70
2022-10-11T12:20:03.486Z,12.70
2022-10-11T12:22:30.252Z,12.40
2022-10-11T12:25:21.226Z,12.40
2022-10-11T12:27:53.069Z,14.70
2022-10-11T12:30:44.526Z,13.30
2022-10-11T12:33:25.357Z,4.60
2022-10-11T12:35:55.388Z,4.60
2022-10-11T12:38:26.560Z,3.80
2022-10-11T12:41:18.211Z,3.90
2022-10-11T12:43:47.831Z,9.80
2022-10-11T12:46:31.069Z,8.80
2022-10-11T12:51:38.190Z,12.50
2022-10-11T12:54:36.957Z,5.10
2022-10-11T12:57:12.042Z,9.70
2022-10-11T12:59:45.519Z,12.20
2022-10-11T13:02:38.383Z,11.10
2022-10-11T13:05:15.730Z,10.10
2022-10-11T13:07:43.319Z,9.30
2022-10-11T13:10:16.210Z,2.50
2022-10-11T13:12:45.634Z,1.00
2022-10-11T13:15:18.987Z,1.00
2022-10-11T13:17:46.201Z,1.00
2022-10-11T13:20:19.012Z,1.00
2022-10-11T13:22:53.088Z,1.00
2022-10-11T13:25:29.746Z,1.00
2022-10-11T13:27:59.524Z,6.50
2022-10-11T13:30:35.530Z,1.00
2022-10-11T13:33:08.655Z,8.20
2022-10-11T13:35:37.361Z,8.50
2022-10-11T13:38:07.768Z,9.70
2022-10-11T13:40:36.396Z,8.20
2022-10-11T13:43:05.672Z,5.70
2022-10-11T13:45:35.132Z,9.60
2022-10-11T13:50:34.585Z,6.60
2022-10-11T13:53:04.251Z,7.00
2022-10-11T13:58:00.851Z,7.80
2022-10-11T14:03:21.100Z,8.60
2022-10-11T14:05:57.345Z,19.20
2022-10-11T14:08:36.313Z,18.80
2022-10-11T14:13:43.324Z,16.10
2022-10-11T14:16:14.038Z,5.90
2022-10-11T14:18:59.262Z,11.80
2022-10-11T14:21:47.549Z,8.40
2022-10-11T14:24:16.271Z,3.30
2022-10-11T14:26:46.391Z,2.10
2022-10-11T14:29:31.389Z,1.00
2022-10-11T14:32:06.311Z,1.00
2022-10-11T14:34:34.361Z,1.00
2022-10-11T14:37:01.305Z,1.00
2022-10-11T14:39:31.037Z,1.00
2022-10-11T14:41:58.162Z,6.30
2022-10-11T14:44:25.494Z,1.00
2022-10-11T14:46:54.721Z,1.00
2022-10-11T14:49:27.132Z,1.00
2022-10-11T14:51:56.176Z,1.00
2022-10-11T14:54:24.984Z,1.00
2022-10-11T14:56:53.849Z,3.20
2022-10-11T14:59:23.040Z,1.00
2022-10-11T15:01:54.088Z,1.00
2022-10-11T15:04:22.358Z,1.00
2022-10-11T15:06:50.302Z,4.60
2022-10-11T15:09:20.656Z,6.00
2022-10-11T15:11:48.357Z,7.70
2022-10-11T15:14:15.226Z,8.60
2022-10-11T15:19:25.089Z,3.10
2022-10-11T15:26:48.097Z,6.90
2022-10-11T15:39:28.575Z,11.30
2022-10-11T15:51:44.902Z,25.20
2022-10-11T15:56:38.915Z,26.80
2022-10-11T16:06:28.527Z,29.80
2022-10-11T16:08:55.300Z,30.30
2022-10-11T16:11:22.265Z,29.70
2022-10-11T16:13:49.487Z,18.80
2022-10-11T16:21:15.466Z,19.70
2022-10-11T16:23:43.002Z,30.00
2022-10-11T16:26:14.047Z,20.70
2022-10-11T16:31:17.976Z,22.00
2022-10-11T16:36:34.342Z,23.70
2022-10-11T16:39:04.828Z,24.40
2022-10-11T16:43:59.277Z,38.40
2022-10-11T16:46:26.055Z,39.70
2022-10-11T16:48:55.904Z,25.60
2022-10-11T16:53:54.089Z,31.80
2022-10-11T17:01:17.061Z,42.60
2022-10-11T17:03:43.946Z,42.30
2022-10-11T17:06:10.795Z,43.50
2022-10-11T17:16:00.701Z,45.20
2022-10-11T17:18:27.758Z,44.50
2022-10-11T17:21:02.774Z,42.50
2022-10-11T17:23:29.828Z,38.90
2022-10-11T17:25:56.764Z,34.60
2022-10-11T17:30:58.377Z,29.10
2022-10-11T17:33:26.566Z,30.20
2022-10-11T17:35:57.993Z,29.50
2022-10-11T17:38:27.390Z,31.20
2022-10-11T17:41:02.149Z,31.60
2022-10-11T17:46:09.059Z,31.90
2022-10-11T17:48:39.078Z,32.20
2022-10-11T17:51:11.709Z,49.00
2022-10-11T17:56:08.609Z,49.40
2022-10-11T18:01:06.034Z,48.90
2022-10-11T18:03:33.819Z,50.10
2022-10-11T18:06:05.680Z,31.50
2022-10-11T18:08:39.798Z,34.30
2022-10-11T18:11:13.496Z,32.00
2022-10-11T18:16:17.225Z,50.50
2022-10-11T18:18:44.590Z,50.80
2022-10-11T18:23:39.546Z,51.20
2022-10-11T18:26:11.731Z,33.80
2022-10-11T18:31:12.865Z,53.60
2022-10-11T18:33:41.802Z,37.30
2022-10-11T18:36:10.965Z,56.30
2022-10-11T18:38:39.220Z,58.60
2022-10-11T18:41:08.637Z,41.50
2022-10-11T18:43:36.362Z,43.20
2022-10-11T18:46:22.521Z,44.60
2022-10-11T18:48:52.180Z,47.50
2022-10-11T18:51:25.159Z,47.20
2022-10-11T18:53:52.746Z,44.20
2022-10-11T18:56:21.296Z,44.90
2022-10-11T18:58:50.300Z,44.90
2022-10-11T19:01:20.126Z,44.20
2022-10-11T19:03:49.164Z,57.70
2022-10-11T19:06:19.057Z,41.00
2022-10-11T19:08:48.511Z,43.30
2022-10-11T19:11:17.020Z,57.30
2022-10-11T19:13:44.356Z,56.10
2022-10-11T19:16:13.808Z,57.90
2022-10-11T19:18:44.299Z,62.80
2022-10-11T19:21:12.925Z,61.80
2022-10-11T19:23:42.592Z,63.10
2022-10-11T19:26:15.408Z,63.40
2022-10-11T19:28:43.259Z,64.10
2022-10-11T19:31:13.056Z,60.60
2022-10-11T19:33:39.822Z,61.20
2022-10-11T19:36:06.937Z,59.40
2022-10-11T19:38:35.215Z,60.00
2022-10-11T19:41:03.421Z,61.20
2022-10-11T19:43:31.233Z,62.30
2022-10-11T19:46:06.219Z,62.50
2022-10-11T19:48:35.898Z,62.20
2022-10-11T19:51:08.355Z,63.00
2022-10-11T19:53:35.786Z,65.20
2022-10-11T19:56:08.425Z,63.70
2022-10-11T19:58:35.905Z,63.40
2022-10-11T20:01:08.268Z,65.50
2022-10-11T20:03:35.647Z,66.80
2022-10-11T20:06:05.016Z,66.10
2022-10-11T20:08:32.611Z,67.40
2022-10-11T20:11:01.011Z,68.40
2022-10-11T20:13:34.564Z,71.40
2022-10-11T20:16:22.860Z,76.80
2022-10-11T20:33:40.222Z,88.20
2022-10-11T20:36:21.124Z,79.30
2022-10-11T20:38:49.117Z,72.50
2022-10-11T20:41:24.422Z,72.30
2022-10-11T20:43:54.104Z,57.30
2022-10-11T20:46:27.045Z,59.20
2022-10-11T20:49:01.958Z,40.90
2022-10-11T20:51:34.562Z,58.70
2022-10-11T20:54:02.326Z,42.80
2022-10-11T20:56:29.737Z,58.70
2022-10-11T21:01:27.335Z,61.40
2022-10-11T21:03:56.564Z,46.60
2022-10-11T21:06:23.376Z,48.80
2022-10-11T21:16:16.208Z,56.80
2022-10-11T21:21:14.437Z,39.50
2022-10-11T21:23:41.965Z,40.70
2022-10-11T21:26:11.650Z,41.50
2022-10-11T21:31:08.183Z,41.10
2022-10-11T21:33:36.254Z,41.80
2022-10-11T21:36:04.754Z,42.00
2022-10-11T21:38:31.625Z,58.20
2022-10-11T21:50:56.609Z,40.70
2022-10-11T21:56:00.232Z,42.80
2022-10-11T22:10:45.653Z,42.90
2022-10-11T22:15:39.700Z,59.10
2022-10-11T22:45:09.340Z,43.20
2022-10-11T23:04:47.921Z,60.10
2022-10-11T23:12:09.292Z,61.50
2022-10-11T23:34:14.611Z,62.00
2022-10-11T23:36:41.406Z,61.80
2022-10-11T23:44:03.694Z,61.30
2022-10-11T23:51:25.070Z,62.00
2022-10-11T23:53:52.064Z,60.90
